Time;durP1;ratioP1;P1;durP2;ratioP2;P2;SDS_P1;SDS_P2;PMS_P1;PMS_P2;Temp;Humidity;BMP_temperature;BMP_pressure;BME280_temperature;BME280_humidity;BME280_pressure;Samples;Min_cycle;Max_cycle;Signal;HPM_P1;HPM_P2
2021/07/05 00:02:16;;;;;;;7.32;4.40;;;;;;;20.56;55.71;99650.00;5053453;28;20036;-2
2021/07/05 00:04:43;;;;;;;7.03;4.75;;;;;;;20.80;52.91;99686.88;5052157;28;20095;-2
2021/07/05 00:07:10;;;;;;;6.50;4.82;;;;;;;20.59;52.07;99664.91;5052987;28;20071;-2
2021/07/05 00:09:37;;;;;;;7.75;4.53;;;;;;;20.59;55.22;99649.81;5053204;28;20065;-3
2021/07/05 00:12:06;;;;;;;11.38;4.57;;;;;;;20.60;55.03;99648.88;5053253;28;20047;-3
2021/07/05 00:14:33;;;;;;;9.60;5.00;;;;;;;20.50;52.28;99651.16;5052755;28;20033;-3
2021/07/05 00:17:00;;;;;;;5.85;4.40;;;;;;;20.49;52.73;99693.72;5053072;28;20132;-3
2021/07/05 00:19:26;;;;;;;7.18;4.28;;;;;;;20.29;53.06;99689.41;5053326;28;20061;-2
2021/07/05 00:21:53;;;;;;;6.80;4.70;;;;;;;20.02;53.34;99681.84;5053258;28;20045;-7
2021/07/05 00:24:20;;;;;;;9.43;4.75;;;;;;;19.88;53.66;99690.50;5052961;28;20595;-3
2021/07/05 00:26:46;;;;;;;7.13;4.65;;;;;;;19.82;55.16;99696.94;5052923;28;20059;-3
2021/07/05 00:29:12;;;;;;;9.45;5.07;;;;;;;19.84;54.78;99699.50;5052651;28;20032;-2
2021/07/05 00:31:39;;;;;;;8.95;5.05;;;;;;;19.67;54.27;99682.59;5053012;28;20389;-3
2021/07/05 00:34:11;;;;;;;6.68;4.45;;;;;;;19.60;57.63;99657.28;5053333;28;20045;-2
2021/07/05 00:36:37;;;;;;;7.20;4.43;;;;;;;19.93;56.12;99691.13;5052635;28;20041;-3
2021/07/05 00:39:04;;;;;;;5.63;4.03;;;;;;;19.72;54.23;99692.97;5052633;28;20045;-2
2021/07/05 00:41:30;;;;;;;7.78;4.28;;;;;;;19.46;54.75;99672.97;5053224;28;20135;-3
2021/07/05 00:43:59;;;;;;;7.22;4.45;;;;;;;19.60;58.57;99688.25;5052497;28;20045;-3
2021/07/05 00:46:26;;;;;;;10.63;4.82;;;;;;;19.17;55.54;99652.16;5053193;28;20036;-3
2021/07/05 00:48:52;;;;;;;7.95;4.90;;;;;;;19.31;57.82;99656.84;5052695;28;20498;-3
2021/07/05 00:51:19;;;;;;;9.13;4.88;;;;;;;19.41;57.41;99669.66;5052500;28;20059;-3
2021/07/05 00:53:49;;;;;;;6.43;4.05;;;;;;;19.43;54.49;99678.44;5052331;28;20039;-2
2021/07/05 00:56:17;;;;;;;7.95;4.40;;;;;;;19.67;58.03;99701.16;5053006;28;20052;-3
2021/07/05 00:58:43;;;;;;;6.13;4.13;;;;;;;19.34;58.35;99653.19;5052965;28;20382;-2
2021/07/05 01:01:10;;;;;;;6.70;4.38;;;;;;;19.58;55.55;99698.94;5051654;28;20043;-3
2021/07/05 01:03:36;;;;;;;10.50;4.70;;;;;;;19.27;54.52;99654.41;5052361;28;20048;-3
2021/07/05 01:06:02;;;;;;;7.97;4.57;;;;;;;19.46;55.61;99705.66;5052336;28;20127;-3
2021/07/05 01:08:28;;;;;;;9.45;4.93;;;;;;;18.91;55.51;99656.00;5053702;28;20040;-3
2021/07/05 01:10:55;;;;;;;8.25;4.60;;;;;;;18.96;56.35;99704.31;5057121;28;20076;-2
2021/07/05 01:13:21;;;;;;;10.02;4.57;;;;;;;18.84;55.45;99689.78;5056147;28;20037;-4
2021/07/05 01:15:48;;;;;;;9.10;4.82;;;;;;;19.01;56.42;99701.50;5056539;28;20507;-3
2021/07/05 01:18:14;;;;;;;7.20;4.30;;;;;;;18.91;57.36;99701.00;5054915;28;20080;-3
2021/07/05 01:20:42;;;;;;;6.20;4.53;;;;;;;18.80;55.42;99701.44;5054890;28;20045;-3
2021/07/05 01:23:10;;;;;;;8.10;4.68;;;;;;;18.65;56.16;99710.06;5056229;28;20034;-3
2021/07/05 01:25:39;;;;;;;7.45;4.55;;;;;;;18.54;56.40;99699.91;5055978;28;20032;-3
2021/07/05 01:28:08;;;;;;;9.77;4.03;;;;;;;18.76;57.74;99706.94;5056352;28;20044;-2
2021/07/05 01:30:34;;;;;;;9.10;4.38;;;;;;;18.41;56.90;99675.75;5056483;28;20082;-3
2021/07/05 01:33:04;;;;;;;5.47;3.90;;;;;;;18.51;55.84;99689.44;5056171;28;20481;-3
2021/07/05 01:35:31;;;;;;;9.07;4.35;;;;;;;18.52;56.88;99715.00;5054798;28;20051;-3
2021/07/05 01:37:57;;;;;;;8.30;4.60;;;;;;;18.46;56.88;99704.66;5054832;28;20053;-5
2021/07/05 01:40:24;;;;;;;8.77;4.30;;;;;;;18.41;56.36;99690.75;5055781;28;20044;-3
2021/07/05 01:42:53;;;;;;;6.22;3.90;;;;;;;18.37;57.58;99665.34;5055732;28;20393;-4
2021/07/05 01:45:22;;;;;;;8.65;4.30;;;;;;;18.47;56.28;99703.75;5054462;28;20051;-3
2021/07/05 01:47:49;;;;;;;7.53;4.40;;;;;;;18.52;56.10;99697.34;5054364;28;20044;-3
2021/07/05 01:50:16;;;;;;;8.93;4.88;;;;;;;18.50;56.27;99704.47;5055816;28;20414;-3
2021/07/05 01:52:43;;;;;;;10.10;5.03;;;;;;;18.57;55.92;99713.00;5054327;28;20048;-3
2021/07/05 01:55:10;;;;;;;7.45;4.38;;;;;;;18.21;57.62;99676.56;5055377;28;20044;-3
2021/07/05 01:57:37;;;;;;;6.57;3.92;;;;;;;18.42;60.66;99663.38;5055431;28;20127;-3
2021/07/05 02:00:15;;;;;;;8.70;4.07;;;;;;;18.92;57.39;99684.19;5054166;28;20043;-3
2021/07/05 02:02:42;;;;;;;6.82;3.65;;;;;;;19.08;59.73;99697.63;5055732;28;20610;-3
2021/07/05 02:05:12;;;;;;;6.63;3.95;;;;;;;19.15;58.32;99669.94;5055510;28;20040;-3
2021/07/05 02:07:40;;;;;;;6.32;3.80;;;;;;;19.64;55.55;99727.78;5054370;28;20105;-9
2021/07/05 02:10:13;;;;;;;8.35;4.30;;;;;;;19.46;57.77;99672.97;5055595;28;20116;-3
2021/07/05 02:12:40;;;;;;;7.65;3.65;;;;;;;19.67;57.29;99674.63;5055468;28;20044;-3
2021/07/05 02:15:10;;;;;;;11.82;3.97;;;;;;;19.77;52.21;99714.81;5055040;28;20519;-3
2021/07/05 02:17:38;;;;;;;7.95;4.20;;;;;;;19.68;52.42;99709.94;5054853;28;20049;-3
2021/07/05 02:20:07;;;;;;;6.88;3.85;;;;;;;19.30;52.76;99694.88;5054272;28;20488;-3
2021/07/05 02:22:33;;;;;;;6.03;3.70;;;;;;;19.20;52.92;99687.41;5054492;28;20047;-3
2021/07/05 02:25:02;;;;;;;10.35;4.15;;;;;;;19.20;53.95;99687.41;5053891;28;20377;-3
2021/07/05 02:27:28;;;;;;;7.22;3.95;;;;;;;19.19;53.55;99707.78;5054880;28;20070;-3
2021/07/05 02:29:54;;;;;;;7.38;3.53;;;;;;;19.02;54.15;99692.63;5054850;28;20059;-3
2021/07/05 02:32:21;;;;;;;5.13;3.63;;;;;;;19.11;56.27;99717.81;5053619;28;20435;-3
2021/07/05 02:34:47;;;;;;;9.05;3.33;;;;;;;18.90;54.01;99691.34;5053488;28;20052;-4
2021/07/05 02:37:13;;;;;;;12.63;4.55;;;;;;;19.12;55.80;99698.34;5054641;28;20036;-4
2021/07/05 02:39:40;;;;;;;8.00;4.38;;;;;;;19.33;53.07;99737.16;5054637;28;20045;-3
2021/07/05 02:42:06;;;;;;;9.52;3.90;;;;;;;19.53;57.30;99710.66;5054686;28;20032;-3
2021/07/05 02:44:32;;;;;;;8.55;4.53;;;;;;;19.57;53.91;99747.59;5053491;28;20404;-4
2021/07/05 02:46:58;;;;;;;6.78;3.95;;;;;;;19.28;57.90;99707.34;5054593;28;20048;-3
2021/07/05 02:49:24;;;;;;;8.45;5.13;;;;;;;19.27;52.34;99705.63;5053770;28;20045;-3
2021/07/05 02:51:50;;;;;;;9.38;5.10;;;;;;;19.37;56.42;99711.34;5053277;28;20041;-3
2021/07/05 02:54:16;;;;;;;7.90;4.80;;;;;;;19.60;57.89;99744.78;5053296;28;20068;-4
2021/07/05 02:56:42;;;;;;;10.55;5.35;;;;;;;19.38;53.05;99709.59;5054358;28;20524;-3
2021/07/05 02:59:08;;;;;;;8.98;5.07;;;;;;;19.32;51.96;99708.94;5053161;28;20385;-3
2021/07/05 03:01:34;;;;;;;22.73;6.03;;;;;;;19.42;53.35;99740.31;5054199;28;20041;-4
2021/07/05 03:04:00;;;;;;;22.10;5.32;;;;;;;19.43;56.03;99761.44;5054167;28;20045;-3
2021/07/05 03:06:26;;;;;;;12.27;5.20;;;;;;;18.93;54.35;99717.72;5054208;28;20071;-5
2021/07/05 03:08:52;;;;;;;13.32;5.40;;;;;;;18.97;54.24;99714.00;5054473;28;20483;-3
2021/07/05 03:11:19;;;;;;;10.40;5.25;;;;;;;19.49;54.72;99768.28;5052986;28;20512;-3
2021/07/05 03:13:45;;;;;;;7.45;4.53;;;;;;;19.46;57.47;99731.28;5054064;28;20044;-3
2021/07/05 03:16:11;;;;;;;6.38;4.20;;;;;;;19.61;53.79;99765.06;5054879;28;20123;-3
2021/07/05 03:18:37;;;;;;;6.22;3.63;;;;;;;19.53;55.32;99721.25;5053790;28;20600;-4
2021/07/05 03:21:03;;;;;;;7.60;3.70;;;;;;;19.66;56.69;99762.22;5054210;28;20036;-3
2021/07/05 03:23:30;;;;;;;7.70;4.20;;;;;;;19.56;53.41;99745.84;5053765;28;20053;-3
2021/07/05 03:25:56;;;;;;;9.90;3.97;;;;;;;19.55;54.64;99765.34;5053753;28;20127;-3
2021/07/05 03:28:23;;;;;;;5.25;3.65;;;;;;;19.06;56.21;99717.16;5053880;28;20040;-3
2021/07/05 03:30:51;;;;;;;8.63;4.07;;;;;;;19.40;54.66;99766.91;5053472;28;20044;-3
2021/07/05 03:33:18;;;;;;;9.27;4.05;;;;;;;19.39;58.55;99721.91;5053737;28;20076;-4
2021/07/05 03:35:44;;;;;;;6.05;4.13;;;;;;;19.22;56.42;99734.13;5052728;28;20511;-3
2021/07/05 03:38:11;;;;;;;8.65;3.90;;;;;;;19.30;54.69;99763.78;5052239;28;20041;-3
2021/07/05 03:40:39;;;;;;;7.00;3.70;;;;;;;19.40;54.46;99744.81;5053427;28;20040;-3
2021/07/05 03:43:06;;;;;;;5.78;3.72;;;;;;;19.72;54.63;99779.63;5052732;28;20044;-4
2021/07/05 03:45:35;;;;;;;7.30;3.85;;;;;;;19.42;54.60;99729.72;5053799;28;20388;-3
2021/07/05 03:48:03;;;;;;;4.88;3.60;;;;;;;19.50;54.28;99752.31;5053720;28;20500;-3
2021/07/05 03:50:30;;;;;;;7.78;4.15;;;;;;;19.16;56.64;99727.31;5035916;28;20484;-3
2021/07/05 03:52:57;;;;;;;6.43;3.88;;;;;;;19.28;57.05;99773.59;5053497;28;20120;-3
2021/07/05 03:55:25;;;;;;;6.45;3.33;;;;;;;19.34;57.83;99768.00;5053428;28;20504;-3
2021/07/05 03:57:52;;;;;;;6.30;3.30;;;;;;;19.02;58.20;99727.06;5035736;28;20408;-3
2021/07/05 04:00:23;;;;;;;5.05;3.60;;;;;;;19.00;58.31;99734.19;5053065;28;20052;-3
2021/07/05 04:02:49;;;;;;;6.45;3.28;;;;;;;19.20;56.58;99743.06;5052108;28;20047;-3
2021/07/05 04:05:16;;;;;;;7.07;3.67;;;;;;;19.52;55.63;99784.03;5052064;28;20041;-3
2021/07/05 04:07:43;;;;;;;6.88;3.85;;;;;;;19.36;57.33;99778.56;5047768;28;20128;-3
2021/07/05 04:10:11;;;;;;;4.82;3.10;;;;;;;19.32;54.94;99772.53;5032104;28;20037;-3
2021/07/05 04:12:38;;;;;;;4.68;3.30;;;;;;;19.26;55.32;99745.44;5031883;28;20037;-3
2021/07/05 04:15:06;;;;;;;6.07;3.40;;;;;;;19.58;54.15;99788.19;5015186;28;20140;-3
2021/07/05 04:17:32;;;;;;;7.20;3.10;;;;;;;19.74;55.07;99797.19;5015087;28;20037;-2
2021/07/05 04:19:58;;;;;;;6.93;3.70;;;;;;;19.78;55.87;99797.94;5033813;28;20476;-3
2021/07/05 04:22:24;;;;;;;8.88;3.63;;;;;;;19.86;54.21;99801.09;5032229;28;20037;-3
2021/07/05 04:24:51;;;;;;;6.97;3.38;;;;;;;19.90;53.81;99789.41;5032791;28;20045;-3
2021/07/05 04:27:17;;;;;;;4.90;3.10;;;;;;;19.88;52.57;99796.59;5015299;28;20033;-3
2021/07/05 04:29:43;;;;;;;6.10;3.30;;;;;;;19.61;55.95;99756.25;5033032;28;20563;-3
2021/07/05 04:32:10;;;;;;;9.95;3.70;;;;;;;19.66;52.71;99755.13;5031661;28;20067;-3
2021/07/05 04:34:36;;;;;;;5.75;3.25;;;;;;;19.70;52.91;99785.00;5015707;28;20041;-4
2021/07/05 04:37:03;;;;;;;4.53;3.10;;;;;;;19.71;56.57;99762.00;5032734;28;20390;-3
2021/07/05 04:39:29;;;;;;;11.85;3.58;;;;;;;19.80;52.73;99785.44;5031544;28;20064;-3
2021/07/05 04:41:56;;;;;;;6.90;4.97;;;;;;;19.70;52.48;99784.13;5031475;28;20544;-3
2021/07/05 04:44:22;;;;;;;5.53;3.30;;;;;;;19.58;52.85;99759.91;5030853;28;20124;-3
2021/07/05 04:46:50;;;;;;;5.95;3.10;;;;;;;19.84;53.48;99789.69;5033260;28;20045;-4
2021/07/05 04:49:21;;;;;;;7.93;3.28;;;;;;;19.91;53.19;99785.84;5031381;28;20068;-3
2021/07/05 04:51:48;;;;;;;5.80;3.20;;;;;;;19.93;52.00;99778.69;5032636;28;20033;-3
2021/07/05 04:54:15;;;;;;;5.22;2.95;;;;;;;20.06;52.18;99788.72;5014782;28;20076;-3
2021/07/05 04:56:41;;;;;;;5.20;2.83;;;;;;;20.12;51.74;99789.28;5032590;28;20049;-3
2021/07/05 04:59:08;;;;;;;4.25;2.72;;;;;;;19.94;51.99;99748.53;5032524;28;20041;-4
2021/07/05 05:01:34;;;;;;;7.13;3.03;;;;;;;20.02;50.17;99760.59;5032400;28;20128;-3
2021/07/05 05:04:01;;;;;;;4.78;2.97;;;;;;;19.95;49.77;99744.97;5032758;28;20041;-3
2021/07/05 05:06:27;;;;;;;4.07;2.50;;;;;;;20.22;55.18;99771.13;5032988;28;20378;-3
2021/07/05 05:08:54;;;;;;;5.55;2.85;;;;;;;20.36;49.59;99797.00;5033419;28;20056;-3
2021/07/05 05:11:20;;;;;;;8.32;2.45;;;;;;;20.27;49.74;99766.47;5032331;28;20124;-3
2021/07/05 05:13:47;;;;;;;8.93;2.85;;;;;;;20.43;49.12;99792.28;5032146;28;20041;-3
2021/07/05 05:16:14;;;;;;;6.32;2.78;;;;;;;20.14;49.26;99734.34;5032355;28;20048;-3
2021/07/05 05:18:40;;;;;;;6.35;2.67;;;;;;;20.54;48.90;99789.09;5045895;28;20135;-3
2021/07/05 05:21:07;;;;;;;8.10;2.72;;;;;;;20.59;48.53;99771.13;5052208;28;20040;-3
2021/07/05 05:23:34;;;;;;;5.43;2.80;;;;;;;20.56;48.16;99756.22;5051316;28;20399;-3
2021/07/05 05:26:00;;;;;;;7.38;2.60;;;;;;;20.94;47.86;99787.16;5051341;28;20139;-3
2021/07/05 05:28:26;;;;;;;6.88;2.60;;;;;;;21.08;51.01;99795.28;5052370;28;20475;-2
2021/07/05 05:30:52;;;;;;;4.15;2.40;;;;;;;21.02;46.10;99790.25;5052097;28;20090;-3
2021/07/05 05:33:18;;;;;;;5.25;2.72;;;;;;;21.12;45.74;99785.34;5051144;28;20049;-3
2021/07/05 05:35:45;;;;;;;8.05;2.40;;;;;;;21.19;46.37;99794.72;5051941;28;20037;-2
2021/07/05 05:38:12;;;;;;;3.92;2.47;;;;;;;21.19;45.99;99785.88;5034129;28;20128;-3
2021/07/05 05:40:38;;;;;;;4.63;2.60;;;;;;;21.34;46.64;99789.53;5052136;28;20070;-3
2021/07/05 05:43:08;;;;;;;4.75;2.60;;;;;;;21.41;46.96;99785.63;5051988;28;20098;-2
2021/07/05 05:45:37;;;;;;;4.50;2.30;;;;;;;21.55;48.59;99785.78;5034706;28;20480;-3
2021/07/05 05:48:03;;;;;;;5.65;2.47;;;;;;;21.53;44.30;99784.13;5052044;28;20466;-3
2021/07/05 05:50:29;;;;;;;4.40;2.28;;;;;;;21.54;45.08;99781.41;5051816;28;20507;-3
2021/07/05 05:52:56;;;;;;;5.15;2.25;;;;;;;21.62;48.25;99773.84;5051689;28;20052;-3
2021/07/05 05:55:22;;;;;;;5.40;2.22;;;;;;;21.72;43.78;99776.03;5052948;28;20045;-3
2021/07/05 05:57:48;;;;;;;5.22;2.20;;;;;;;21.67;46.69;99756.78;5055244;28;20047;-3
2021/07/05 06:00:21;;;;;;;4.80;2.15;;;;;;;21.79;46.63;99780.09;5055127;28;20037;-3
2021/07/05 06:02:49;;;;;;;5.18;2.55;;;;;;;21.86;42.99;99778.78;5055374;28;20071;-3
2021/07/05 06:05:16;;;;;;;5.53;2.53;;;;;;;21.87;43.15;99777.84;5055574;28;20051;-3
2021/07/05 06:07:47;;;;;;;5.55;2.70;;;;;;;21.86;43.24;99781.44;5055134;28;20551;-3
2021/07/05 06:10:17;;;;;;;8.05;2.67;;;;;;;21.98;44.43;99783.44;5053950;28;20053;-3
2021/07/05 06:12:45;;;;;;;5.63;2.55;;;;;;;22.10;41.42;99781.06;5055126;28;20040;-2
2021/07/05 06:15:12;;;;;;;4.85;2.60;;;;;;;21.94;41.02;99757.94;5055055;28;20045;-3
2021/07/05 06:17:38;;;;;;;4.18;2.22;;;;;;;22.11;42.44;99773.00;5055039;28;20565;-3
2021/07/05 06:20:06;;;;;;;4.32;2.30;;;;;;;22.18;40.40;99789.47;5055223;28;20072;-3
2021/07/05 06:22:39;;;;;;;3.55;2.20;;;;;;;22.16;42.27;99775.38;5055597;28;20045;-4
2021/07/05 06:25:06;;;;;;;6.30;2.78;;;;;;;22.35;40.71;99777.03;5054894;28;20500;-3
2021/07/05 06:27:32;;;;;;;9.90;2.40;;;;;;;22.30;39.13;99790.59;5054946;28;20040;-3
2021/07/05 06:29:58;;;;;;;6.05;2.40;;;;;;;22.34;41.63;99775.28;5055018;28;20033;-5
2021/07/05 06:32:24;;;;;;;5.80;2.80;;;;;;;22.44;42.50;99777.38;5054725;28;20037;-4
2021/07/05 06:34:50;;;;;;;4.97;2.80;;;;;;;22.54;42.31;99788.38;5054011;28;20060;-3
2021/07/05 06:37:17;;;;;;;4.53;2.63;;;;;;;22.49;41.70;99786.91;5054536;28;20037;-3
2021/07/05 06:39:43;;;;;;;8.85;3.00;;;;;;;22.47;43.06;99787.00;5055122;28;20044;-3
2021/07/05 06:42:10;;;;;;;5.30;3.45;;;;;;;22.60;42.88;99796.00;5055553;28;20036;-3
2021/07/05 06:44:36;;;;;;;6.20;2.95;;;;;;;22.67;43.75;99790.31;5054568;28;20054;-3
2021/07/05 06:47:02;;;;;;;5.97;3.03;;;;;;;22.60;42.67;99785.34;5053957;28;20454;-4
2021/07/05 06:49:29;;;;;;;5.82;3.70;;;;;;;22.59;43.16;99778.31;5054416;28;20041;-4
2021/07/05 06:51:56;;;;;;;4.90;3.20;;;;;;;22.68;42.32;99784.03;5054210;28;20040;-4
2021/07/05 06:54:22;;;;;;;5.10;3.22;;;;;;;22.72;43.96;99790.91;5052964;28;20502;-4
2021/07/05 06:56:48;;;;;;;6.20;3.10;;;;;;;22.61;43.57;99764.91;5054127;28;20041;-3
2021/07/05 06:59:14;;;;;;;7.57;2.95;;;;;;;22.55;43.27;99789.22;5054206;28;20044;-4
2021/07/05 07:01:41;;;;;;;4.57;2.92;;;;;;;22.63;41.57;99777.19;5052718;28;20044;-3
2021/07/05 07:04:07;;;;;;;4.88;2.60;;;;;;;22.70;43.65;99772.34;5054139;28;20043;-4
2021/07/05 07:06:33;;;;;;;6.28;3.22;;;;;;;22.84;41.86;99784.00;5053399;28;20059;-3
2021/07/05 07:08:59;;;;;;;5.65;3.03;;;;;;;22.71;42.12;99775.84;5053754;28;20087;-4
2021/07/05 07:11:25;;;;;;;6.40;3.00;;;;;;;22.88;43.91;99783.75;5055014;28;20480;-4
2021/07/05 07:13:51;;;;;;;6.10;3.47;;;;;;;22.92;42.03;99773.75;5052980;28;20123;-5
2021/07/05 07:16:20;;;;;;;12.15;4.35;;;;;;;23.15;40.70;99774.22;5053975;28;20384;-4
2021/07/05 07:19:20;;;;;;;6.10;3.35;;;;;;;23.36;41.07;99788.94;5053477;28;20198;-3
2021/07/05 07:21:39;;;;;;;7.18;3.75;;;;;;;23.36;40.99;99788.06;5053896;28;20053;-3
2021/07/05 07:24:05;;;;;;;5.72;3.78;;;;;;;23.24;41.15;99776.31;5053358;28;20450;-2
2021/07/05 07:26:32;;;;;;;4.97;3.10;;;;;;;23.33;43.50;99772.25;5034722;28;20056;-3
2021/07/05 07:28:58;;;;;;;5.43;3.10;;;;;;;23.41;42.60;99776.16;5034006;28;20049;-3
2021/07/05 07:31:24;;;;;;;6.63;3.33;;;;;;;23.42;43.04;99769.84;5037896;28;20055;-3
2021/07/05 07:33:51;;;;;;;7.70;3.13;;;;;;;23.41;43.65;99775.28;5047378;28;20051;-4
2021/07/05 07:36:19;;;;;;;6.30;3.47;;;;;;;23.50;41.79;99771.22;5040711;28;20048;-4
2021/07/05 07:38:48;;;;;;;7.32;3.60;;;;;;;23.51;41.42;99775.59;5013307;28;20045;-4
2021/07/05 07:41:20;;;;;;;6.07;3.40;;;;;;;23.55;42.38;99777.97;5013669;28;20042;-4
2021/07/05 07:43:47;;;;;;;4.50;2.47;;;;;;;23.66;43.01;99781.78;5012360;28;20053;-4
2021/07/05 07:46:13;;;;;;;8.15;4.75;;;;;;;23.59;42.12;99778.66;5012241;28;20054;-4
2021/07/05 07:48:42;;;;;;;6.00;3.35;;;;;;;23.48;42.01;99786.44;5023504;28;20167;-5
2021/07/05 07:51:08;;;;;;;8.65;3.20;;;;;;;23.67;42.30;99784.34;5044002;28;20064;-4
2021/07/05 07:53:35;;;;;;;7.35;3.67;;;;;;;23.82;40.65;99787.88;5039363;28;20037;-4
2021/07/05 07:56:01;;;;;;;9.07;3.60;;;;;;;23.78;40.13;99778.38;5032161;28;20582;-4
2021/07/05 07:58:27;;;;;;;10.05;3.10;;;;;;;23.90;40.98;99780.28;5033234;28;20037;-4
2021/07/05 08:00:54;;;;;;;7.00;3.08;;;;;;;23.99;40.58;99783.31;5032974;28;20412;-4
2021/07/05 08:03:20;;;;;;;5.45;3.88;;;;;;;24.11;41.33;99771.84;5033615;28;20038;-4
2021/07/05 08:05:46;;;;;;;4.95;2.85;;;;;;;24.10;41.10;99780.81;5033369;28;20563;-4
2021/07/05 08:08:13;;;;;;;5.15;3.30;;;;;;;24.17;39.68;99773.25;5033755;28;20508;-4
2021/07/05 08:10:41;;;;;;;19.67;3.78;;;;;;;24.16;40.44;99764.41;5033073;28;20047;-4
2021/07/05 08:13:07;;;;;;;7.25;3.28;;;;;;;24.21;40.58;99781.00;5032293;28;20065;-4
2021/07/05 08:15:33;;;;;;;8.35;3.30;;;;;;;24.28;40.26;99776.09;5031615;28;20136;-5
2021/07/05 08:17:59;;;;;;;8.05;3.47;;;;;;;24.20;40.34;99763.25;5030500;28;20065;-5
2021/07/05 08:20:25;;;;;;;5.70;2.97;;;;;;;24.28;40.33;99773.44;5030548;28;20072;-5
2021/07/05 08:22:53;;;;;;;9.25;3.92;;;;;;;24.34;41.11;99766.81;5030787;28;20104;-5
2021/07/05 08:25:21;;;;;;;5.63;3.33;;;;;;;24.45;40.33;99775.00;5030112;28;20045;-4
2021/07/05 08:27:48;;;;;;;9.65;3.75;;;;;;;24.33;41.65;99765.13;5030508;28;20041;-4
2021/07/05 08:30:14;;;;;;;7.93;3.97;;;;;;;24.39;39.69;99759.38;5032323;28;20033;-5
2021/07/05 08:32:41;;;;;;;5.35;3.35;;;;;;;24.53;38.96;99774.50;5032539;28;20045;-4
2021/07/05 08:35:08;;;;;;;4.68;3.30;;;;;;;24.50;38.54;99786.25;5039774;28;20071;-3
2021/07/05 08:37:34;;;;;;;7.90;3.65;;;;;;;24.49;40.74;99775.66;5052877;28;20041;-4
2021/07/05 08:40:02;;;;;;;9.43;4.57;;;;;;;24.65;40.56;99776.38;5053132;28;20041;-3
2021/07/05 08:42:28;;;;;;;7.78;4.05;;;;;;;24.72;39.54;99777.69;5052467;28;20037;-4
2021/07/05 08:44:55;;;;;;;7.10;3.72;;;;;;;24.76;38.60;99779.19;5051176;28;20041;-3
2021/07/05 08:47:24;;;;;;;6.38;3.33;;;;;;;24.89;37.70;99781.91;5053488;28;20548;-4
2021/07/05 08:49:50;;;;;;;5.95;4.22;;;;;;;24.76;39.19;99783.69;5051359;28;20045;-3
2021/07/05 08:52:17;;;;;;;6.18;3.88;;;;;;;24.79;39.21;99778.13;5052662;28;20041;-3
2021/07/05 08:54:43;;;;;;;8.75;3.85;;;;;;;24.89;38.70;99762.34;5053008;28;20037;-3
2021/07/05 08:57:26;;;;;;;5.15;3.30;;;;;;;25.04;39.36;99781.81;5052850;28;20068;-5
2021/07/05 08:59:55;;;;;;;5.38;3.60;;;;;;;24.53;40.35;99750.44;5050995;28;20059;-5
2021/07/05 09:02:22;;;;;;;8.75;3.88;;;;;;;24.54;41.68;99758.34;5052382;28;20630;-5
2021/07/05 09:04:50;;;;;;;6.30;4.15;;;;;;;24.76;41.26;99760.47;5052286;28;20542;-4
2021/07/05 09:07:16;;;;;;;8.20;4.40;;;;;;;24.93;40.02;99777.22;5052116;28;20037;-4
2021/07/05 09:10:04;;;;;;;5.95;3.75;;;;;;;24.81;40.23;99761.97;5052032;28;20048;-3
2021/07/05 09:12:30;;;;;;;8.15;3.15;;;;;;;25.02;39.05;99775.72;5052099;28;20129;-12
2021/07/05 09:15:07;;;;;;;5.57;3.30;;;;;;;25.14;39.12;99782.91;5052468;28;20052;-6
2021/07/05 09:17:36;;;;;;;6.00;3.00;;;;;;;25.07;38.22;99769.09;5051976;28;20044;-4
2021/07/05 09:20:24;;;;;;;5.47;3.60;;;;;;;24.91;38.85;99758.59;5052362;28;20082;-4
2021/07/05 09:23:12;;;;;;;7.75;3.55;;;;;;;24.97;39.94;99765.34;5051995;28;20098;-5
2021/07/05 09:25:47;;;;;;;8.13;3.30;;;;;;;25.12;39.25;99758.06;5052355;28;20036;-4
2021/07/05 09:28:16;;;;;;;6.90;3.63;;;;;;;25.29;37.76;99764.91;5052384;28;20048;-4
2021/07/05 09:30:59;;;;;;;9.15;4.18;;;;;;;25.22;38.91;99766.34;5055484;28;20063;-5
2021/07/05 09:33:28;;;;;;;8.85;4.45;;;;;;;25.15;38.34;99757.00;5056073;28;20053;-4
2021/07/05 09:36:01;;;;;;;9.18;4.60;;;;;;;25.12;40.41;99757.22;5055865;28;20468;-4
2021/07/05 09:38:41;;;;;;;11.02;3.78;;;;;;;25.35;39.13;99758.34;5056065;28;20123;-4
2021/07/05 09:41:24;;;;;;;4.18;3.20;;;;;;;25.51;36.52;99758.13;5055573;28;20076;-4
2021/07/05 09:43:55;;;;;;;6.95;4.32;;;;;;;25.49;39.31;99763.59;5055917;28;20522;-4
2021/07/05 09:46:38;;;;;;;7.38;3.55;;;;;;;25.25;37.57;99731.31;5055669;28;20032;-4
2021/07/05 09:49:12;;;;;;;5.53;3.83;;;;;;;25.22;39.64;99759.16;5055771;28;20496;-3
2021/07/05 09:51:45;;;;;;;6.57;3.38;;;;;;;25.41;37.08;99747.22;5053400;28;20090;-4
2021/07/05 09:54:22;;;;;;;5.28;3.53;;;;;;;25.42;38.88;99749.78;5045651;28;20055;-6
2021/07/05 09:56:54;;;;;;;6.10;3.55;;;;;;;25.46;37.95;99752.22;5055702;28;20045;-4
2021/07/05 09:59:23;;;;;;;6.57;3.30;;;;;;;25.55;37.85;99751.56;5038064;28;20037;-4
2021/07/05 10:01:54;;;;;;;5.53;3.47;;;;;;;25.47;37.80;99751.28;5055737;28;20048;-4
2021/07/05 10:04:38;;;;;;;9.20;4.20;;;;;;;25.55;38.22;99763.16;5054048;28;20040;-4
2021/07/05 10:07:06;;;;;;;6.63;3.67;;;;;;;25.31;37.17;99757.66;5055620;28;20061;-4
2021/07/05 10:09:37;;;;;;;5.32;3.67;;;;;;;25.19;36.98;99750.50;5038358;28;20560;-4
2021/07/05 10:12:26;;;;;;;10.48;5.05;;;;;;;25.26;39.19;99741.91;5055246;28;20119;-5
2021/07/05 10:14:55;;;;;;;10.50;4.25;;;;;;;25.31;38.12;99759.50;5054245;28;20057;-5
2021/07/05 10:17:22;;;;;;;6.18;3.65;;;;;;;25.39;37.11;99760.69;5053986;28;20063;-5
2021/07/05 10:19:49;;;;;;;5.82;3.40;;;;;;;25.31;38.11;99754.16;5036530;28;20057;-5
2021/07/05 10:22:16;;;;;;;5.32;3.65;;;;;;;25.51;37.65;99750.94;5053141;28;20094;-4
2021/07/05 10:24:44;;;;;;;5.95;3.50;;;;;;;25.64;37.74;99753.59;5051092;28;20044;-4
2021/07/05 10:27:12;;;;;;;9.13;4.22;;;;;;;25.71;38.80;99754.88;5045114;28;20041;-4
2021/07/05 10:29:39;;;;;;;6.47;3.35;;;;;;;26.07;36.42;99763.06;5054833;28;20075;-4
2021/07/05 10:32:07;;;;;;;6.63;3.22;;;;;;;25.93;36.35;99735.44;5054060;28;20047;-4
2021/07/05 10:34:35;;;;;;;6.50;3.63;;;;;;;26.11;38.73;99758.34;5050971;28;20137;-6
2021/07/05 10:37:05;;;;;;;6.38;3.75;;;;;;;25.73;37.47;99714.59;5053130;28;20603;-4
2021/07/05 10:39:34;;;;;;;9.13;3.78;;;;;;;26.04;37.53;99736.53;5054347;28;20051;-3
2021/07/05 10:42:00;;;;;;;9.45;4.78;;;;;;;26.06;36.33;99762.22;5052231;28;20067;-4
2021/07/05 10:44:44;;;;;;;7.88;3.92;;;;;;;26.09;37.21;99750.44;5051673;28;20433;-8
2021/07/05 10:47:10;;;;;;;7.68;3.85;;;;;;;26.10;37.39;99754.84;5053804;28;20063;-4
2021/07/05 10:49:46;;;;;;;6.70;4.20;;;;;;;25.97;38.03;99738.75;5038503;28;20496;-4
2021/07/05 10:52:16;;;;;;;6.47;4.65;;;;;;;25.99;38.94;99760.91;5034470;28;20041;-5
2021/07/05 10:54:50;;;;;;;6.32;4.10;;;;;;;26.24;36.58;99760.03;5034395;28;20048;-4
2021/07/05 10:57:45;;;;;;;6.38;4.05;;;;;;;26.16;37.22;99746.31;5034128;28;20037;-4
2021/07/05 11:00:18;;;;;;;8.57;4.07;;;;;;;26.25;37.72;99753.69;5032600;28;20048;-3
2021/07/05 11:02:53;;;;;;;8.50;4.38;;;;;;;26.38;36.08;99742.91;5032975;28;20383;-4
2021/07/05 11:05:42;;;;;;;7.95;3.95;;;;;;;26.46;34.77;99750.38;5045979;28;20526;-7
2021/07/05 11:08:48;;;;;;;8.68;4.00;;;;;;;26.30;38.06;99749.81;5052999;28;20037;-4
2021/07/05 11:11:25;;;;;;;8.48;3.50;;;;;;;26.59;35.75;99761.03;5050264;28;20052;-4
2021/07/05 11:14:17;;;;;;;7.05;3.85;;;;;;;26.46;37.63;99749.53;5052219;28;20044;-5
2021/07/05 11:17:04;;;;;;;5.03;3.70;;;;;;;26.20;38.49;99747.81;5051307;28;20104;-5
2021/07/05 11:19:39;;;;;;;4.88;3.50;;;;;;;26.07;37.78;99744.31;5051858;28;20045;-4
2021/07/05 11:22:09;;;;;;;10.10;4.53;;;;;;;26.02;36.82;99746.44;5052490;28;20409;-4
2021/07/05 11:24:41;;;;;;;7.40;4.18;;;;;;;26.16;35.93;99746.31;5054105;28;20048;-6
2021/07/05 11:27:29;;;;;;;5.90;3.10;;;;;;;26.40;33.93;99740.13;5053556;28;20051;-5
2021/07/05 11:30:11;;;;;;;6.93;4.72;;;;;;;26.40;36.09;99735.63;5051109;28;20427;-5
2021/07/05 11:32:42;;;;;;;6.63;4.00;;;;;;;26.62;36.66;99739.38;5034031;28;20044;-5
2021/07/05 11:35:26;;;;;;;;;;;;;;;26.59;34.92;99734.22;5032825;28;20041;-3
2021/07/05 11:37:54;;;;;;;8.60;4.65;;;;;;;26.61;36.94;99726.06;5032199;28;19925;-4
2021/07/05 11:41:07;;;;;;;9.57;4.32;;;;;;;26.58;36.91;99722.66;5033057;28;20037;-5
2021/07/05 11:43:56;;;;;;;5.30;3.38;;;;;;;26.72;34.91;99740.41;5031674;28;20124;-6
2021/07/05 11:46:25;;;;;;;5.10;3.42;;;;;;;26.74;36.04;99738.47;4996014;28;20050;-5
2021/07/05 11:48:59;;;;;;;6.60;3.10;;;;;;;26.52;34.57;99706.19;5013614;28;20513;-4
2021/07/05 11:51:25;;;;;;;5.60;3.65;;;;;;;26.44;36.63;99727.34;5018054;28;20046;-3